Arnos Vale, Saint Vincent

10:28 AM AST on July 28, 2014 (GMT -0400)
E T Joshua (TVSV) Elev 43 ft | 13.14 °N, 61.21 °W | Change Station

Current weather conditions updated 1 hour ago

Mostly Cloudy
Mostly Cloudy
84 °F
Feels Like 92 °F
N
15
Wind Variable Wind from East

Today is forecast to be nearly the same temperature as yesterday.

Today
High -- | Low -- °F
--% Chance of Precip.
Yesterday
High -- | Low -- °F
Precip. -- in
5:49 AM 6:33 PM
New Moon, 2% visible
Pressure 30.06 in
Visibility 6.2 miles
Clouds Mostly Cloudy 2000 ft
Heat Index 92 °F
Dew Point 75 °F
Humidity 74%
Rainfall 0.00 in
Snow Depth Not available.
UV 5 out of 12
Pollen Not available.
Air Quality Not available.
Flu Activity Not available.
METAR TVSV 281300Z 09013KT 9999 BKN020 29/24 Q1018

More Conditions Fewer Conditions

Pressure 30.06 in
Visibility 6.2 miles
Clouds Mostly Cloudy 2000 ft
Heat Index 92 °F
Dew Point 75 °F
Humidity 74%
Rainfall 0.00 in
Snow Depth Not available.
UV 5 out of 12
Pollen Not available.
Air Quality Not available.
Flu Activity Not available.
METAR TVSV 281300Z 09013KT 9999 BKN020 29/24 Q1018

More Conditions Fewer Conditions

10-Day Weather Forecast

Almanac

Astronomy

Jul. 28, 2014 Rise Set
Actual Time 5:49 AM AST 6:33 PM AST
Civil Twilight 5:26 AM AST 6:55 PM AST
Nautical Twilight 5:00 AM AST 7:22 PM AST
Astronomical Twilight 4:33 AM AST 7:49 PM AST
Moon 7:02 AM AST 7:41 PM AST
Length of Visible Light 13h 29m
Length of Day
12h 43m
Tomorrow will be 0m 30s shorter.
New Moon, 2% of the Moon is Illuminated
Today
New Moon
Aug 3
First Quarter
Aug 10
Full
Aug 17
Last Quarter
Aug 25
New

Yesterday's Extremes

Country Highs Country Lows

Community

WunderPhotos

Upload Photos

1,738,337 photos uploaded!

Nearby

Snow Depth

Not available.

Earthquake Activity

City Distance Mag. Time & Date
No recent earthquake activity has been reported nearby.
Minimum magnitude displayed is 2.5.

Coastal Water Temperatures

Place Temperature
No Stations Reporting

Nearby Weather Stations

There are no personal weather stations in this area.